Time;durP1;ratioP1;P1;durP2;ratioP2;P2;SDS_P1;SDS_P2;PMS_P1;PMS_P2;Temp;Humidity;BMP_temperature;BMP_pressure;BME280_temperature;BME280_humidity;BME280_pressure;Samples;Min_cycle;Max_cycle;Signal;HPM_P1;HPM_P2
2021/04/11 00:01:13;;;;;;;15.95;3.72;;;;;;;;;;5083518;28;20016;-80
2021/04/11 00:03:39;;;;;;;14.98;4.88;;;;;;;;;;5083840;28;20027;-81
2021/04/11 00:06:05;;;;;;;14.52;4.07;;;;;;;;;;5078345;28;20025;-80
2021/04/11 00:08:31;;;;;;;18.85;4.32;;;;;;;;;;5084830;28;20050;-77
2021/04/11 00:11:00;;;;;;;14.90;3.92;;;;;;;;;;5078803;28;20580;-78
2021/04/11 00:13:26;;;;;;;13.70;3.28;;;;;;;;;;5079152;28;20032;-81
2021/04/11 00:15:52;;;;;;;9.57;3.25;;;;;;;;;;5084296;28;20526;-76
2021/04/11 00:18:19;;;;;;;18.85;4.43;;;;;;;;;;5084943;28;20631;-81
2021/04/11 00:20:45;;;;;;;15.77;3.85;;;;;;;;;;5088913;28;20020;-83
2021/04/11 00:23:11;;;;;;;11.55;3.75;;;;;;;;;;5088812;28;20520;-79
2021/04/11 00:25:39;;;;;;;17.67;4.03;;;;;;;;;;5079044;28;20039;-80
2021/04/11 00:28:06;;;;;;;10.25;2.55;;;;;;;;;;5085492;28;20106;-81
2021/04/11 00:30:32;;;;;;;15.55;3.88;;;;;;;;;;5084449;28;20094;-76
2021/04/11 00:32:59;;;;;;;15.50;4.95;;;;;;;;;;5084594;28;20474;-78
2021/04/11 00:35:25;;;;;;;26.08;4.25;;;;;;;;;;5086698;28;20008;-78
2021/04/11 00:37:51;;;;;;;19.73;4.53;;;;;;;;;;5088206;28;20028;-79
2021/04/11 00:40:20;;;;;;;21.55;4.50;;;;;;;;;;5088480;28;20024;-72
2021/04/11 00:42:48;;;;;;;14.13;3.85;;;;;;;;;;5086344;28;20021;-80
2021/04/11 00:45:14;;;;;;;21.92;3.75;;;;;;;;;;5080804;28;20019;-78
2021/04/11 00:47:41;;;;;;;15.57;4.88;;;;;;;;;;5084130;28;20115;-79
2021/04/11 00:50:10;;;;;;;11.50;3.53;;;;;;;;;;5086112;28;20031;-80
2021/04/11 00:52:36;;;;;;;15.75;3.60;;;;;;;;;;5077849;28;20029;-76
2021/04/11 00:55:02;;;;;;;13.65;4.65;;;;;;;;;;5089049;28;20107;-72
2021/04/11 00:57:29;;;;;;;13.95;4.20;;;;;;;;;;5085231;28;20047;-77
2021/04/11 00:59:55;;;;;;;17.23;4.35;;;;;;;;;;5076100;28;20070;-75
2021/04/11 01:02:21;;;;;;;12.07;3.55;;;;;;;;;;5090143;28;20028;-74
2021/04/11 01:04:47;;;;;;;21.70;4.63;;;;;;;;;;5086725;28;20028;-76
2021/04/11 01:07:14;;;;;;;18.55;4.72;;;;;;;;;;5089670;28;20024;-76
2021/04/11 01:09:41;;;;;;;17.95;3.80;;;;;;;;;;5080707;28;20027;-76
2021/04/11 01:12:08;;;;;;;18.42;4.40;;;;;;;;;;5087518;28;20081;-77
2021/04/11 01:14:36;;;;;;;15.70;4.25;;;;;;;;;;5082409;28;20018;-77
2021/04/11 01:17:04;;;;;;;23.40;5.18;;;;;;;;;;5086805;28;20048;-78
2021/04/11 01:19:35;;;;;;;20.63;4.22;;;;;;;;;;5095136;28;20024;-78
2021/04/11 01:22:20;;;;;;;10.25;3.33;;;;;;;;;;5089017;28;20032;-78
2021/04/11 01:24:57;;;;;;;22.40;5.85;;;;;;;;;;5086257;28;20036;-76
2021/04/11 01:27:24;;;;;;;16.88;5.00;;;;;;;;;;5088282;28;20039;-73
2021/04/11 01:29:52;;;;;;;16.25;5.82;;;;;;;;;;5085922;28;20032;-77
2021/04/11 01:32:18;;;;;;;16.45;4.57;;;;;;;;;;5087202;28;20070;-75
2021/04/11 01:34:44;;;;;;;26.80;5.07;;;;;;;;;;5088436;28;20024;-75
2021/04/11 01:37:12;;;;;;;16.10;4.25;;;;;;;;;;5091221;28;20062;-77
2021/04/11 01:39:39;;;;;;;17.90;3.72;;;;;;;;;;5081816;28;20039;-73
2021/04/11 01:42:06;;;;;;;10.23;2.92;;;;;;;;;;5087730;28;20082;-77
2021/04/11 01:44:33;;;;;;;16.42;3.85;;;;;;;;;;5088946;28;20048;-77
2021/04/11 01:47:00;;;;;;;18.60;3.53;;;;;;;;;;5088991;28;20028;-77
2021/04/11 01:49:26;;;;;;;19.85;4.05;;;;;;;;;;5083634;28;20025;-75
2021/04/11 01:52:13;;;;;;;14.30;3.33;;;;;;;;;;5083901;28;20027;-77
2021/04/11 01:54:39;;;;;;;26.08;3.65;;;;;;;;;;5069728;28;20040;-76
2021/04/11 01:57:17;;;;;;;12.73;3.13;;;;;;;;;;5092082;28;20422;-73
2021/04/11 01:59:44;;;;;;;15.82;2.97;;;;;;;;;;5089490;28;20096;-75
2021/04/11 02:02:12;;;;;;;12.23;2.50;;;;;;;;;;5078067;28;20023;-76
2021/04/11 02:04:38;;;;;;;19.42;4.25;;;;;;;;;;5090037;28;20455;-76
2021/04/11 02:07:06;;;;;;;14.52;2.63;;;;;;;;;;5083122;28;20386;-77
2021/04/11 02:09:34;;;;;;;17.88;3.13;;;;;;;;;;5078349;28;20060;-77
2021/04/11 02:12:01;;;;;;;14.20;3.10;;;;;;;;;;5077712;28;20028;-76
2021/04/11 02:14:28;;;;;;;20.30;3.97;;;;;;;;;;5093305;28;20516;-76
2021/04/11 02:16:58;;;;;;;19.20;3.10;;;;;;;;;;5085379;28;20048;-77
2021/04/11 02:19:28;;;;;;;15.23;2.75;;;;;;;;;;5085240;28;20042;-75
2021/04/11 02:22:05;;;;;;;14.63;2.75;;;;;;;;;;5091065;28;20020;-71
2021/04/11 02:24:31;;;;;;;10.93;2.47;;;;;;;;;;5089769;28;20081;-75
2021/04/11 02:26:57;;;;;;;14.63;2.70;;;;;;;;;;5091942;28;20024;-77
2021/04/11 02:29:25;;;;;;;17.50;2.65;;;;;;;;;;5090958;28;20060;-77
2021/04/11 02:31:51;;;;;;;14.07;3.08;;;;;;;;;;5081755;28;20514;-76
2021/04/11 02:34:25;;;;;;;15.57;2.70;;;;;;;;;;5090339;28;20081;-76
2021/04/11 02:36:54;;;;;;;13.88;2.47;;;;;;;;;;5082903;28;20073;-76
2021/04/11 02:39:22;;;;;;;11.80;3.38;;;;;;;;;;5089309;28;20590;-77
2021/04/11 02:41:49;;;;;;;11.68;2.65;;;;;;;;;;5087538;28;20043;-75
2021/04/11 02:44:15;;;;;;;14.63;2.75;;;;;;;;;;5090252;28;20070;-75
2021/04/11 02:46:42;;;;;;;10.80;1.98;;;;;;;;;;5088543;28;20024;-78
2021/04/11 02:49:10;;;;;;;16.40;2.72;;;;;;;;;;5084495;28;20493;-78
2021/04/11 02:51:36;;;;;;;17.20;2.72;;;;;;;;;;5088621;28;20047;-78
2021/04/11 02:54:03;;;;;;;13.02;2.15;;;;;;;;;;5091559;28;20039;-77
2021/04/11 02:56:29;;;;;;;15.45;3.17;;;;;;;;;;5089004;28;20020;-78
2021/04/11 02:58:56;;;;;;;10.45;2.13;;;;;;;;;;5086280;28;20043;-79
2021/04/11 03:01:30;;;;;;;12.68;1.92;;;;;;;;;;5081875;28;20032;-78
2021/04/11 03:03:57;;;;;;;17.83;2.38;;;;;;;;;;5091400;28;20020;-75
2021/04/11 03:06:25;;;;;;;12.40;1.73;;;;;;;;;;5083471;28;20033;-75
2021/04/11 03:08:53;;;;;;;12.18;2.58;;;;;;;;;;5084831;28;20025;-82
2021/04/11 03:11:25;;;;;;;12.40;1.60;;;;;;;;;;5080189;28;20028;-74
2021/04/11 03:13:52;;;;;;;11.45;1.92;;;;;;;;;;5090248;28;20486;-72
2021/04/11 03:16:19;;;;;;;8.45;1.83;;;;;;;;;;5089770;28;20507;-72
2021/04/11 03:18:45;;;;;;;9.38;2.00;;;;;;;;;;5086443;28;20035;-74
2021/04/11 03:21:11;;;;;;;11.63;2.38;;;;;;;;;;5090114;28;20105;-72
2021/04/11 03:23:37;;;;;;;13.85;2.10;;;;;;;;;;5084814;28;20579;-76
2021/04/11 03:26:07;;;;;;;15.50;2.35;;;;;;;;;;5090437;28;20494;-75
2021/04/11 03:28:42;;;;;;;13.65;2.22;;;;;;;;;;5087158;28;20024;-74
2021/04/11 03:31:13;;;;;;;17.98;2.90;;;;;;;;;;5079864;28;20028;-78
2021/04/11 03:33:42;;;;;;;22.67;3.20;;;;;;;;;;5084290;28;20035;-76
2021/04/11 03:36:10;;;;;;;16.83;2.05;;;;;;;;;;5091248;28;20065;-76
2021/04/11 03:38:36;;;;;;;18.52;2.92;;;;;;;;;;5084192;28;20031;-80
2021/04/11 03:41:03;;;;;;;15.55;2.10;;;;;;;;;;5089046;28;20035;-80
2021/04/11 03:43:32;;;;;;;16.88;2.30;;;;;;;;;;5091830;28;20016;-79
2021/04/11 03:46:00;;;;;;;9.73;2.28;;;;;;;;;;5088157;28;20028;-78
2021/04/11 03:48:29;;;;;;;11.45;2.03;;;;;;;;;;5085091;28;20614;-77
2021/04/11 03:51:01;;;;;;;16.75;2.33;;;;;;;;;;5085256;28;20062;-78
2021/04/11 03:53:32;;;;;;;11.15;2.60;;;;;;;;;;5088727;28;20012;-78
2021/04/11 03:56:03;;;;;;;7.97;1.70;;;;;;;;;;5091478;28;20046;-79
2021/04/11 03:58:32;;;;;;;10.70;2.38;;;;;;;;;;5087351;28;20032;-77
2021/04/11 04:01:00;;;;;;;12.35;1.85;;;;;;;;;;5089030;28;20081;-78
2021/04/11 04:03:28;;;;;;;12.68;2.05;;;;;;;;;;5085106;28;20408;-77
2021/04/11 04:05:54;;;;;;;10.07;1.77;;;;;;;;;;5085628;28;20494;-77
2021/04/11 04:08:20;;;;;;;11.02;1.70;;;;;;;;;;5089031;28;20047;-76
2021/04/11 04:10:59;;;;;;;12.48;2.20;;;;;;;;;;5083720;28;20153;-77
2021/04/11 04:13:28;;;;;;;12.65;2.03;;;;;;;;;;5088488;28;20063;-77
2021/04/11 04:16:03;;;;;;;18.33;2.95;;;;;;;;;;5080039;28;20167;-78
2021/04/11 04:18:47;;;;;;;10.48;1.60;;;;;;;;;;5090192;28;20023;-76
2021/04/11 04:21:17;;;;;;;12.77;1.80;;;;;;;;;;5088301;28;20070;-78
2021/04/11 04:23:46;;;;;;;15.48;1.63;;;;;;;;;;5083586;28;20024;-79
2021/04/11 04:26:30;;;;;;;11.75;2.50;;;;;;;;;;5086615;28;20042;-81
2021/04/11 04:29:05;;;;;;;10.07;1.55;;;;;;;;;;5088908;28;20089;-81
2021/04/11 04:31:35;;;;;;;10.80;1.95;;;;;;;;;;5085129;28;20438;-80
2021/04/11 04:34:04;;;;;;;8.50;1.27;;;;;;;;;;5087392;28;20046;-78
2021/04/11 04:36:30;;;;;;;7.18;1.75;;;;;;;;;;5086008;28;20402;-81
2021/04/11 04:38:56;;;;;;;11.20;1.80;;;;;;;;;;5085906;28;20105;-82
2021/04/11 04:41:42;;;;;;;14.35;2.22;;;;;;;;;;5084538;28;20021;-78
2021/04/11 04:44:27;;;;;;;12.63;1.95;;;;;;;;;;5088795;28;20063;-79
2021/04/11 04:47:08;;;;;;;8.90;2.00;;;;;;;;;;5084961;28;20050;-80
2021/04/11 04:49:34;;;;;;;13.68;1.95;;;;;;;;;;5080866;28;20070;-82
2021/04/11 04:52:05;;;;;;;7.63;1.63;;;;;;;;;;5081994;28;20485;-81
2021/04/11 04:54:31;;;;;;;8.95;1.80;;;;;;;;;;5088078;28;20035;-84
2021/04/11 04:57:06;;;;;;;9.98;1.50;;;;;;;;;;5089804;28;20028;-81
2021/04/11 04:59:42;;;;;;;10.25;1.92;;;;;;;;;;5087485;28;20073;-82
2021/04/11 05:02:10;;;;;;;14.65;1.88;;;;;;;;;;5079256;28;20028;-80
2021/04/11 05:04:38;;;;;;;9.57;2.00;;;;;;;;;;5088123;28;20502;-78
2021/04/11 05:07:08;;;;;;;15.68;2.38;;;;;;;;;;5090538;28;20024;-78
2021/04/11 05:09:51;;;;;;;10.98;1.50;;;;;;;;;;5078213;28;20082;-81
2021/04/11 05:12:26;;;;;;;10.93;1.80;;;;;;;;;;5082294;28;20024;-80
2021/04/11 05:14:59;;;;;;;14.57;1.80;;;;;;;;;;5085239;28;20039;-79
2021/04/11 05:17:28;;;;;;;5.85;1.15;;;;;;;;;;5088575;28;20059;-79
2021/04/11 05:19:56;;;;;;;6.15;2.00;;;;;;;;;;5085705;28;20024;-78
2021/04/11 05:22:25;;;;;;;10.27;1.45;;;;;;;;;;5090086;28;20051;-77
2021/04/11 05:25:00;;;;;;;14.27;2.97;;;;;;;;;;5081298;28;20028;-79
2021/04/11 05:27:35;;;;;;;10.43;2.65;;;;;;;;;;5083033;28;20016;-77
2021/04/11 05:30:06;;;;;;;9.75;1.50;;;;;;;;;;5085792;28;20063;-78
2021/04/11 05:32:32;;;;;;;10.98;1.70;;;;;;;;;;5087319;28;20024;-76
2021/04/11 05:34:58;;;;;;;10.15;2.38;;;;;;;;;;5091406;28;20146;-75
2021/04/11 05:37:26;;;;;;;13.20;1.83;;;;;;;;;;5089839;28;20016;-78
2021/04/11 05:40:07;;;;;;;10.85;2.10;;;;;;;;;;5091450;28;20054;-78
2021/04/11 05:42:46;;;;;;;8.13;1.65;;;;;;;;;;5092051;28;20040;-77
2021/04/11 05:45:18;;;;;;;9.77;1.75;;;;;;;;;;5084623;28;20046;-78
2021/04/11 05:47:53;;;;;;;7.22;2.05;;;;;;;;;;5087580;28;20522;-79
2021/04/11 05:50:19;;;;;;;8.20;1.38;;;;;;;;;;5090915;28;20028;-77
2021/04/11 05:52:49;;;;;;;15.73;2.15;;;;;;;;;;5093964;28;20016;-75
2021/04/11 05:55:17;;;;;;;8.57;1.45;;;;;;;;;;5079759;28;20025;-74
2021/04/11 05:57:48;;;;;;;7.50;1.75;;;;;;;;;;5088879;28;20477;-77
2021/04/11 06:00:14;;;;;;;;;;;;;;;;;;5090551;28;20032;-76
2021/04/11 06:02:45;;;;;;;12.30;3.95;;;;;;;;;;5092248;28;19961;-75
2021/04/11 06:05:14;;;;;;;11.57;2.63;;;;;;;;;;5092517;28;20024;-75
2021/04/11 06:07:56;;;;;;;15.55;2.45;;;;;;;;;;5091250;28;20027;-76
2021/04/11 06:10:35;;;;;;;12.25;1.75;;;;;;;;;;5073600;28;20032;-76
2021/04/11 06:13:04;;;;;;;12.18;1.63;;;;;;;;;;5091575;28;20020;-75
2021/04/11 06:15:35;;;;;;;11.60;1.88;;;;;;;;;;5078246;28;20049;-76
2021/04/11 06:18:03;;;;;;;9.35;1.55;;;;;;;;;;5078243;28;20577;-74
2021/04/11 06:20:29;;;;;;;6.88;1.38;;;;;;;;;;5090176;28;20525;-78
2021/04/11 06:22:58;;;;;;;11.93;1.65;;;;;;;;;;5087601;28;20502;-76
2021/04/11 06:25:36;;;;;;;5.47;0.90;;;;;;;;;;5085208;28;20032;-77
2021/04/11 06:28:12;;;;;;;10.43;2.20;;;;;;;;;;5085669;28;20027;-81
2021/04/11 06:30:46;;;;;;;10.90;1.80;;;;;;;;;;5090290;28;20055;-76
2021/04/11 06:33:12;;;;;;;8.50;1.38;;;;;;;;;;5091303;28;20161;-73
2021/04/11 06:36:07;;;;;;;6.80;1.30;;;;;;;;;;5091128;28;20047;-75
2021/04/11 06:38:41;;;;;;;12.50;2.72;;;;;;;;;;5068117;28;20181;-77
2021/04/11 06:41:07;;;;;;;9.23;2.17;;;;;;;;;;5085945;28;20047;-76
2021/04/11 06:43:42;;;;;;;9.32;2.05;;;;;;;;;;5091340;28;20050;-75
2021/04/11 06:46:28;;;;;;;10.55;1.80;;;;;;;;;;5084419;28;20028;-75
2021/04/11 06:48:57;;;;;;;7.50;1.88;;;;;;;;;;5036365;28;20036;-77
2021/04/11 06:51:35;;;;;;;13.65;2.75;;;;;;;;;;5088813;28;20031;-74
2021/04/11 06:54:20;;;;;;;10.20;1.90;;;;;;;;;;5087927;28;20111;-76
2021/04/11 06:56:50;;;;;;;7.30;1.40;;;;;;;;;;5088753;28;20033;-76
2021/04/11 06:59:27;;;;;;;10.70;2.03;;;;;;;;;;5090305;28;20119;-75
2021/04/11 07:02:14;;;;;;;12.40;2.15;;;;;;;;;;5086567;28;20037;-76
2021/04/11 07:04:56;;;;;;;12.02;1.50;;;;;;;;;;5084490;28;20062;-75
2021/04/11 07:07:22;;;;;;;9.43;2.03;;;;;;;;;;5082095;28;20037;-75
2021/04/11 07:09:51;;;;;;;7.50;1.33;;;;;;;;;;5085487;28;20028;-75
2021/04/11 07:12:29;;;;;;;7.75;1.55;;;;;;;;;;5086764;28;20028;-75
2021/04/11 07:15:09;;;;;;;9.55;2.08;;;;;;;;;;5074805;28;20027;-75
2021/04/11 07:17:50;;;;;;;8.45;1.58;;;;;;;;;;5081086;28;20020;-78
2021/04/11 07:20:28;;;;;;;5.63;0.93;;;;;;;;;;5078439;28;20099;-75
2021/04/11 07:22:54;;;;;;;7.90;1.63;;;;;;;;;;5078497;28;20488;-74
2021/04/11 07:25:25;;;;;;;8.82;1.67;;;;;;;;;;5082334;28;20494;-75
2021/04/11 07:28:02;;;;;;;9.07;1.50;;;;;;;;;;5092601;28;20031;-75
2021/04/11 07:30:29;;;;;;;16.35;1.98;;;;;;;;;;5087489;28;20040;-77
2021/04/11 07:33:05;;;;;;;13.90;2.15;;;;;;;;;;5084030;28;20029;-75
2021/04/11 07:35:50;;;;;;;13.32;2.15;;;;;;;;;;5084699;28;20035;-76
2021/04/11 07:38:35;;;;;;;9.70;1.70;;;;;;;;;;5088584;28;20024;-75
2021/04/11 07:41:15;;;;;;;11.80;1.65;;;;;;;;;;5081205;28;20040;-77
2021/04/11 07:43:50;;;;;;;7.78;1.30;;;;;;;;;;5083789;28;20043;-75
2021/04/11 07:46:25;;;;;;;9.98;1.30;;;;;;;;;;5080055;28;20043;-74
2021/04/11 07:49:11;;;;;;;11.48;1.20;;;;;;;;;;5079355;28;20024;-73
2021/04/11 07:51:40;;;;;;;7.90;1.67;;;;;;;;;;5087705;28;20174;-76
2021/04/11 07:54:25;;;;;;;11.15;2.22;;;;;;;;;;5081618;28;20017;-73
2021/04/11 07:56:57;;;;;;;7.47;1.58;;;;;;;;;;5082376;28;20028;-77
2021/04/11 07:59:49;;;;;;;10.23;1.45;;;;;;;;;;5080690;28;20028;-73
2021/04/11 08:02:19;;;;;;;9.10;1.77;;;;;;;;;;5076317;28;20134;-74
2021/04/11 08:04:51;;;;;;;9.70;1.50;;;;;;;;;;5080521;28;20272;-73
2021/04/11 08:07:17;;;;;;;11.25;1.65;;;;;;;;;;5078765;28;20028;-73
2021/04/11 08:09:43;;;;;;;11.82;1.27;;;;;;;;;;5076054;28;20483;-73
2021/04/11 08:12:16;;;;;;;11.88;1.98;;;;;;;;;;5080738;28;20026;-75
2021/04/11 08:14:45;;;;;;;9.35;1.52;;;;;;;;;;5079895;28;20725;-75
2021/04/11 08:17:17;;;;;;;5.70;1.27;;;;;;;;;;5078250;28;20051;-75
2021/04/11 08:19:55;;;;;;;16.65;2.90;;;;;;;;;;5076395;28;20043;-72
2021/04/11 08:22:24;;;;;;;6.97;1.30;;;;;;;;;;5078204;28;20039;-74
2021/04/11 08:25:09;;;;;;;15.27;1.70;;;;;;;;;;5079993;28;20119;-74
2021/04/11 08:27:42;;;;;;;6.88;1.30;;;;;;;;;;5076025;28;21551;-74
2021/04/11 08:30:15;;;;;;;6.40;1.30;;;;;;;;;;5075909;28;20035;-74
2021/04/11 08:32:56;;;;;;;4.68;1.23;;;;;;;;;;5077917;28;20031;-74
2021/04/11 08:35:22;;;;;;;9.45;1.30;;;;;;;;;;5079486;28;20029;-78
2021/04/11 08:37:51;;;;;;;13.40;1.25;;;;;;;;;;5078764;28;20397;-77
2021/04/11 08:40:17;;;;;;;9.32;1.55;;;;;;;;;;5075900;28;20024;-74
2021/04/11 08:43:02;;;;;;;9.48;1.45;;;;;;;;;;5077464;28;20035;-76
2021/04/11 08:45:28;;;;;;;11.90;1.90;;;;;;;;;;5078621;28;20032;-75
2021/04/11 08:47:54;;;;;;;9.32;1.88;;;;;;;;;;5080133;28;20048;-74
2021/04/11 08:50:39;;;;;;;11.02;1.30;;;;;;;;;;5082056;28;20145;-75
2021/04/11 08:53:08;;;;;;;11.75;1.60;;;;;;;;;;5086899;28;20525;-75
2021/04/11 08:55:39;;;;;;;12.25;1.65;;;;;;;;;;5088491;28;20093;-75
2021/04/11 08:58:08;;;;;;;9.87;1.93;;;;;;;;;;5081614;28;20024;-74
2021/04/11 09:00:52;;;;;;;14.63;2.08;;;;;;;;;;5077490;28;20035;-76
2021/04/11 09:03:32;;;;;;;12.57;1.27;;;;;;;;;;5085801;28;20035;-76
2021/04/11 09:06:04;;;;;;;9.02;1.23;;;;;;;;;;5086217;28;20103;-76
2021/04/11 09:08:30;;;;;;;;;;;;;;;;;;5087944;28;20024;-76
2021/04/11 09:10:56;;;;;;;11.18;1.40;;;;;;;;;;5086046;28;19948;-74
2021/04/11 09:13:28;;;;;;;5.07;1.20;;;;;;;;;;5083963;28;20501;-75
2021/04/11 09:16:13;;;;;;;8.23;1.27;;;;;;;;;;5084821;28;20051;-74
2021/04/11 09:18:45;;;;;;;8.73;1.45;;;;;;;;;;5087079;28;20028;-75
2021/04/11 09:21:11;;;;;;;;;;;;;;;;;;5086798;28;20028;-75
2021/04/11 09:23:45;;;;;;;11.27;1.52;;;;;;;;;;5092844;28;19994;-75
2021/04/11 09:26:26;;;;;;;11.45;1.45;;;;;;;;;;5086092;28;20499;-72
2021/04/11 09:29:03;;;;;;;8.20;1.95;;;;;;;;;;5090772;28;20038;-72
2021/04/11 09:31:34;;;;;;;15.10;2.17;;;;;;;;;;5093230;28;20031;-74
2021/04/11 09:34:00;;;;;;;10.38;1.77;;;;;;;;;;5089213;28;20036;-74
2021/04/11 09:36:45;;;;;;;11.13;1.92;;;;;;;;;;5085751;28;20405;-72
2021/04/11 09:39:11;;;;;;;8.07;1.10;;;;;;;;;;5085233;28;20063;-72
2021/04/11 09:41:45;;;;;;;11.05;2.15;;;;;;;;;;5087349;28;20055;-75
2021/04/11 09:44:30;;;;;;;12.27;2.25;;;;;;;;;;5090708;28;20028;-73
2021/04/11 09:46:56;;;;;;;13.93;1.83;;;;;;;;;;5094185;28;20068;-77
2021/04/11 09:49:25;;;;;;;10.43;1.90;;;;;;;;;;5089005;28;20533;-77
2021/04/11 09:52:03;;;;;;;10.15;1.40;;;;;;;;;;5090029;28;20024;-75
2021/04/11 09:54:52;;;;;;;17.00;2.05;;;;;;;;;;5089220;28;20070;-75
2021/04/11 09:57:21;;;;;;;10.38;1.50;;;;;;;;;;5084043;28;20568;-78
2021/04/11 10:00:07;;;;;;;7.85;1.00;;;;;;;;;;5087528;28;20061;-76
2021/04/11 10:02:42;;;;;;;11.65;2.15;;;;;;;;;;5084858;28;20027;-77
2021/04/11 10:05:18;;;;;;;9.73;1.70;;;;;;;;;;5080959;28;20032;-75
2021/04/11 10:07:56;;;;;;;9.07;3.42;;;;;;;;;;5077853;28;20040;-74
2021/04/11 10:10:34;;;;;;;7.30;1.65;;;;;;;;;;5080090;28;20046;-74
2021/04/11 10:13:06;;;;;;;11.75;1.60;;;;;;;;;;5080072;28;20059;-75
2021/04/11 10:15:35;;;;;;;7.18;1.08;;;;;;;;;;5092362;28;20098;-75
2021/04/11 10:18:01;;;;;;;8.43;1.40;;;;;;;;;;5090437;28;20410;-76
2021/04/11 10:20:39;;;;;;;6.95;1.35;;;;;;;;;;5089954;28;20024;-75
2021/04/11 10:23:17;;;;;;;8.43;1.10;;;;;;;;;;5079806;28;20081;-74
2021/04/11 10:25:49;;;;;;;5.82;1.23;;;;;;;;;;5085281;28;20032;-74
2021/04/11 10:28:23;;;;;;;6.95;1.55;;;;;;;;;;5091506;28;20059;-77
2021/04/11 10:30:59;;;;;;;7.03;1.77;;;;;;;;;;5086808;28;20020;-73
2021/04/11 10:33:35;;;;;;;5.10;1.50;;;;;;;;;;5090941;28;20024;-74
2021/04/11 10:36:24;;;;;;;8.25;1.50;;;;;;;;;;5090824;28;20027;-79
2021/04/11 10:38:53;;;;;;;8.15;1.50;;;;;;;;;;5074281;28;20040;-74
2021/04/11 10:41:22;;;;;;;8.15;1.38;;;;;;;;;;5083028;28;20401;-73
2021/04/11 10:43:51;;;;;;;11.45;1.58;;;;;;;;;;5089121;28;20054;-75
2021/04/11 10:46:25;;;;;;;7.00;1.05;;;;;;;;;;5091319;28;20044;-74
2021/04/11 10:48:54;;;;;;;8.82;1.05;;;;;;;;;;5075425;28;20028;-74
2021/04/11 10:51:26;;;;;;;15.50;1.67;;;;;;;;;;5088722;28;20031;-73
2021/04/11 10:53:58;;;;;;;9.30;1.48;;;;;;;;;;5091452;28;20024;-74
2021/04/11 10:56:24;;;;;;;;;;;;;;;;;;5088502;28;20020;-73
2021/04/11 10:58:59;;;;;;;11.75;2.00;;;;;;;;;;5083125;28;20053;-75
2021/04/11 11:01:44;;;;;;;12.55;1.63;;;;;;;;;;5087552;28;20017;-75
2021/04/11 11:04:31;;;;;;;5.78;1.27;;;;;;;;;;5085800;28;20117;-74
2021/04/11 11:06:57;;;;;;;11.80;1.33;;;;;;;;;;5089083;28;20028;-74
2021/04/11 11:09:56;;;;;;;9.13;0.95;;;;;;;;;;5083904;28;20028;-74
2021/04/11 11:12:25;;;;;;;7.68;1.45;;;;;;;;;;5036715;28;20417;-76
2021/04/11 11:15:10;;;;;;;6.28;1.13;;;;;;;;;;5087493;28;20691;-73
2021/04/11 11:17:38;;;;;;;12.63;1.42;;;;;;;;;;5085963;28;20055;-73
2021/04/11 11:20:17;;;;;;;9.90;1.40;;;;;;;;;;5087592;28;20581;-73
2021/04/11 11:22:49;;;;;;;9.30;1.23;;;;;;;;;;5084919;28;20032;-74
2021/04/11 11:25:18;;;;;;;5.75;1.40;;;;;;;;;;5090174;28;20028;-75
2021/04/11 11:27:47;;;;;;;7.78;1.30;;;;;;;;;;5090347;28;20032;-72
2021/04/11 11:30:13;;;;;;;8.20;1.73;;;;;;;;;;5087818;28;20036;-73
2021/04/11 11:32:52;;;;;;;4.32;1.05;;;;;;;;;;5089535;28;20035;-75
2021/04/11 11:35:18;;;;;;;11.05;1.52;;;;;;;;;;5075338;28;20020;-72
2021/04/11 11:37:44;;;;;;;10.00;1.40;;;;;;;;;;5079827;28;20024;-72
2021/04/11 11:40:22;;;;;;;6.75;1.38;;;;;;;;;;5084915;28;20022;-73
2021/04/11 11:42:57;;;;;;;6.63;1.27;;;;;;;;;;5089043;28;20034;-72
2021/04/11 11:45:26;;;;;;;10.88;1.77;;;;;;;;;;5088786;28;20072;-74
2021/04/11 11:47:55;;;;;;;6.35;1.20;;;;;;;;;;5084822;28;20020;-72
2021/04/11 11:50:29;;;;;;;7.72;1.50;;;;;;;;;;5082817;28;20028;-72
2021/04/11 11:52:58;;;;;;;6.88;1.40;;;;;;;;;;5088314;28;20085;-72
2021/04/11 11:55:38;;;;;;;7.60;1.35;;;;;;;;;;5085411;28;20052;-71
2021/04/11 11:58:09;;;;;;;13.50;1.33;;;;;;;;;;5086844;28;20020;-75
2021/04/11 12:00:36;;;;;;;11.50;1.50;;;;;;;;;;5085700;28;20119;-74
2021/04/11 12:03:12;;;;;;;10.98;2.22;;;;;;;;;;5086388;28;20032;-72
2021/04/11 12:05:39;;;;;;;11.40;1.65;;;;;;;;;;5085823;28;20043;-72
2021/04/11 12:08:25;;;;;;;12.40;1.33;;;;;;;;;;5083007;28;20032;-75
2021/04/11 12:10:52;;;;;;;8.68;1.20;;;;;;;;;;5075393;28;20040;-73
2021/04/11 12:13:29;;;;;;;9.88;1.40;;;;;;;;;;5085269;28;20686;-73
2021/04/11 12:15:58;;;;;;;9.20;1.20;;;;;;;;;;5077509;28;20082;-73
2021/04/11 12:18:47;;;;;;;6.63;1.00;;;;;;;;;;5087098;28;20039;-73
2021/04/11 12:21:34;;;;;;;6.72;0.85;;;;;;;;;;5049216;28;20071;-74
2021/04/11 12:24:03;;;;;;;8.93;2.50;;;;;;;;;;5078800;28;20028;-74
2021/04/11 12:26:33;;;;;;;10.93;2.22;;;;;;;;;;5084816;28;20029;-74
2021/04/11 12:29:12;;;;;;;9.55;1.20;;;;;;;;;;5076841;28;20077;-73
2021/04/11 12:31:41;;;;;;;8.50;1.42;;;;;;;;;;5088762;28;20019;-74
2021/04/11 12:34:07;;;;;;;7.13;1.10;;;;;;;;;;5088851;28;20513;-74
2021/04/11 12:36:43;;;;;;;9.93;1.75;;;;;;;;;;5087393;28;20101;-73
2021/04/11 12:39:14;;;;;;;11.13;1.80;;;;;;;;;;5082260;28;20580;-77
2021/04/11 12:41:49;;;;;;;7.30;1.38;;;;;;;;;;5087493;28;20119;-73
2021/04/11 12:44:20;;;;;;;7.82;1.50;;;;;;;;;;5087060;28;20029;-74
2021/04/11 12:46:56;;;;;;;5.90;1.25;;;;;;;;;;5086936;28;20028;-75
2021/04/11 12:49:22;;;;;;;12.50;1.50;;;;;;;;;;5069268;28;20115;-73
2021/04/11 12:52:02;;;;;;;7.00;0.90;;;;;;;;;;5088737;28;20028;-76
2021/04/11 12:54:37;;;;;;;10.70;1.88;;;;;;;;;;5065372;28;20500;-73
2021/04/11 12:57:08;;;;;;;8.32;1.40;;;;;;;;;;5086306;28;20122;-73
2021/04/11 12:59:49;;;;;;;9.23;1.25;;;;;;;;;;5080673;28;20035;-71
2021/04/11 13:02:17;;;;;;;8.65;1.27;;;;;;;;;;5088946;28;20575;-76
2021/04/11 13:04:48;;;;;;;7.57;0.93;;;;;;;;;;5087510;28;20039;-73
2021/04/11 13:07:18;;;;;;;6.22;0.98;;;;;;;;;;5089293;28;20047;-74
2021/04/11 13:09:53;;;;;;;9.25;1.40;;;;;;;;;;5081407;28;20028;-74
2021/04/11 13:12:32;;;;;;;6.40;1.20;;;;;;;;;;5085453;28;20497;-76
2021/04/11 13:15:17;;;;;;;10.95;1.40;;;;;;;;;;5089211;28;20023;-74
2021/04/11 13:17:49;;;;;;;10.30;0.90;;;;;;;;;;5081913;28;20040;-74
2021/04/11 13:20:15;;;;;;;;;;;;;;;;;;5085477;28;20065;-73
2021/04/11 13:22:45;;;;;;;8.45;1.13;;;;;;;;;;5086170;28;19938;-73
2021/04/11 13:25:33;;;;;;;11.77;1.30;;;;;;;;;;5081979;28;20448;-73
2021/04/11 13:28:14;;;;;;;8.95;0.93;;;;;;;;;;5091400;28;20365;-73
2021/04/11 13:30:43;;;;;;;11.73;1.38;;;;;;;;;;5086263;28;20024;-72
2021/04/11 13:33:18;;;;;;;7.18;0.82;;;;;;;;;;5088010;28;20036;-73
2021/04/11 13:35:52;;;;;;;8.82;1.15;;;;;;;;;;5089078;28;20322;-72
2021/04/11 13:38:38;;;;;;;9.05;1.20;;;;;;;;;;5087777;28;20027;-75
2021/04/11 13:41:23;;;;;;;11.77;1.52;;;;;;;;;;5084296;28;20016;-73
2021/04/11 13:43:52;;;;;;;6.72;1.85;;;;;;;;;;5087932;28;20024;-75
2021/04/11 13:46:22;;;;;;;8.52;2.45;;;;;;;;;;5092329;28;20043;-74
2021/04/11 13:48:48;;;;;;;11.52;1.42;;;;;;;;;;5091769;28;20107;-75
2021/04/11 13:51:26;;;;;;;10.90;1.65;;;;;;;;;;5079800;28;20112;-74
2021/04/11 13:54:10;;;;;;;7.72;1.05;;;;;;;;;;5092459;28;20027;-73
2021/04/11 13:56:39;;;;;;;9.50;1.48;;;;;;;;;;5085592;28;20498;-74
2021/04/11 13:59:24;;;;;;;7.97;1.63;;;;;;;;;;5078823;28;20030;-72
2021/04/11 14:01:52;;;;;;;7.28;1.45;;;;;;;;;;5089588;28;20486;-74
2021/04/11 14:04:27;;;;;;;14.32;1.77;;;;;;;;;;5091873;28;20112;-72
2021/04/11 14:07:00;;;;;;;4.72;1.05;;;;;;;;;;5088767;28;20012;-74
2021/04/11 14:09:39;;;;;;;8.32;1.27;;;;;;;;;;5084295;28;20032;-75
2021/04/11 14:12:05;;;;;;;6.53;1.17;;;;;;;;;;5088367;28;20021;-73
2021/04/11 14:14:34;;;;;;;9.82;1.33;;;;;;;;;;5087300;28;20107;-71
2021/04/11 14:17:02;;;;;;;8.57;2.40;;;;;;;;;;5086099;28;20430;-70
2021/04/11 14:19:38;;;;;;;8.23;1.25;;;;;;;;;;5090411;28;20036;-70
2021/04/11 14:22:09;;;;;;;7.63;1.05;;;;;;;;;;5083243;28;20431;-70
2021/04/11 14:24:41;;;;;;;5.88;0.88;;;;;;;;;;5089041;28;20053;-72
2021/04/11 14:27:07;;;;;;;;;;;;;;;;;;5088551;28;20057;-71
2021/04/11 14:29:35;;;;;;;11.63;1.45;;;;;;;;;;5096078;28;19958;-70
2021/04/11 14:32:07;;;;;;;6.10;1.02;;;;;;;;;;5092782;28;20032;-69
2021/04/11 14:34:49;;;;;;;7.13;1.42;;;;;;;;;;5099329;28;20032;-71
2021/04/11 14:37:15;;;;;;;6.22;1.10;;;;;;;;;;5088776;28;20057;-71
2021/04/11 14:39:43;;;;;;;8.93;0.80;;;;;;;;;;5095425;28;20243;-69
2021/04/11 14:42:30;;;;;;;9.73;1.30;;;;;;;;;;5086732;28;20051;-70
2021/04/11 14:45:06;;;;;;;11.07;1.13;;;;;;;;;;5098342;28;20027;-69
2021/04/11 14:47:37;;;;;;;3.95;0.70;;;;;;;;;;5088864;28;20024;-71
2021/04/11 14:50:16;;;;;;;10.60;1.00;;;;;;;;;;5084782;28;20031;-71
2021/04/11 14:52:50;;;;;;;5.93;1.00;;;;;;;;;;5090421;28;20428;-71
2021/04/11 14:55:21;;;;;;;7.45;0.73;;;;;;;;;;5093477;28;20478;-73
2021/04/11 14:57:55;;;;;;;5.22;0.70;;;;;;;;;;5087089;28;20482;-72
2021/04/11 15:00:21;;;;;;;5.85;1.20;;;;;;;;;;5087989;28;20034;-73
2021/04/11 15:02:52;;;;;;;4.55;0.80;;;;;;;;;;5087354;28;20028;-70
2021/04/11 15:05:33;;;;;;;3.73;0.60;;;;;;;;;;5092682;28;20502;-73
2021/04/11 15:08:22;;;;;;;8.88;0.93;;;;;;;;;;5086240;28;20028;-74